^^
Your Local Weather - Clay, NY Station Historical Data
Daily Summary for January 13, 2018 Units:  Metric    English   Both
« Previous Day
Next Day »
Daily Weekly Monthly Yearly Custom
  High: Low: Average:
Temperature: -8.1 °C -18.2 °C -12.2 °C
Dew Point: -9.3 °C -20.1 °C -13.7 °C
Humidity: 91% 85% 89%
Wind Speed: 16.1km/h 0km/h 5.6km/h
Wind Gust: 20.9km/h - -
Wind- - WNW
Pressure: 1033.7 hPa 1007.7 hPa -
Precipitation: 0 mm    
Historical Graphs
 
 
Tabular Data for January 13, 2018
Time Temperature Dew Point Pressure Wind Wind Speed Wind Gust Humidity Rainfall Rate (Hourly) solar
00:03 -8.1 °C -9.3 °C 1008.7 hPa NNE 8 km/h 9.7 km/h 91% 0 mm 0 W/m2
00:10 -8.2 °C -9.4 °C 1008.7 hPa North 8 km/h 12.9 km/h 91% 0 mm 0 W/m2
00:18 -8.5 °C -9.7 °C 1008.7 hPa NW 11.3 km/h 20.9 km/h 91% 0 mm 0 W/m2
00:23 -8.6 °C -9.9 °C 1009 hPa NW 11.3 km/h 14.5 km/h 90% 0 mm 0 W/m2
00:29 -8.7 °C -10.1 °C 1009 hPa NW 11.3 km/h 11.3 km/h 90% 0 mm 0 W/m2
00:35 -8.7 °C -9.9 °C 1009 hPa North 9.7 km/h 11.3 km/h 91% 0 mm 0 W/m2
00:42 -8.8 °C -10.1 °C 1009.4 hPa NW 6.4 km/h 8 km/h 90% 0 mm 0 W/m2
00:48 -8.8 °C -10.1 °C 1009.7 hPa NNW 8 km/h 11.3 km/h 91% 0 mm 0 W/m2
00:53 -8.8 °C -10.1 °C 1009.7 hPa NNW 6.4 km/h 8 km/h 91% 0 mm 0 W/m2
01:05 -9.1 °C -10.4 °C 1009 hPa NW 11.3 km/h 16.1 km/h 90% 0 mm 0 W/m2
01:12 -9.2 °C -10.5 °C 1007.7 hPa NNW 11.3 km/h 11.3 km/h 90% 0 mm 0 W/m2
01:18 -9.3 °C -10.6 °C 1008.4 hPa NNW 11.3 km/h 17.7 km/h 90% 0 mm 0 W/m2
01:29 -9.4 °C -10.7 °C 1008.7 hPa NNW 11.3 km/h 11.3 km/h 90% 0 mm 0 W/m2
01:36 -9.4 °C -10.8 °C 1008 hPa North 11.3 km/h 16.1 km/h 90% 0 mm 0 W/m2
01:42 -9.5 °C -10.8 °C 1008.4 hPa NW 9.7 km/h 14.5 km/h 90% 0 mm 0 W/m2
01:48 -9.6 °C -10.9 °C 1007.7 hPa NNE 11.3 km/h 14.5 km/h 90% 0 mm 0 W/m2
01:54 -9.7 °C -11 °C 1008 hPa NW 12.9 km/h 17.7 km/h 90% 0 mm 0 W/m2
02:00 -9.8 °C -11.2 °C 1008 hPa NNW 12.9 km/h 12.9 km/h 90% 0 mm 0 W/m2
02:06 -9.9 °C -11.2 °C 1008 hPa NNW 9.7 km/h 12.9 km/h 90% 0 mm 0 W/m2
02:12 -9.9 °C -11.3 °C 1008.7 hPa NNW 9.7 km/h 9.7 km/h 90% 0 mm 0 W/m2
02:19 -9.9 °C -11.3 °C 1009 hPa NNW 8 km/h 8 km/h 90% 0 mm 0 W/m2
02:26 -10 °C -11.3 °C 1009.4 hPa NNW 8 km/h 14.5 km/h 90% 0 mm 0 W/m2
02:35 -10.1 °C -11.4 °C 1009.4 hPa NW 9.7 km/h 12.9 km/h 90% 0 mm 0 W/m2
02:42 -10.1 °C -11.6 °C 1009.7 hPa North 9.7 km/h 11.3 km/h 89% 0 mm 0 W/m2
02:52 -10.2 °C -11.5 °C 1009.4 hPa NW 4.8 km/h 4.8 km/h 90% 0 mm 0 W/m2
02:58 -10.2 °C -11.5 °C 1009.7 hPa NW 6.4 km/h 11.3 km/h 90% 0 mm 0 W/m2
03:03 -10.2 °C -11.5 °C 1010 hPa NW 6.4 km/h 8 km/h 90% 0 mm 0 W/m2
03:09 -10.2 °C -11.5 °C 1010 hPa NW 4.8 km/h 8 km/h 90% 0 mm 0 W/m2
03:16 -10.3 °C -11.6 °C 1010 hPa NW 6.4 km/h 19.3 km/h 90% 0 mm 0 W/m2
03:22 -10.4 °C -11.9 °C 1009.7 hPa North 9.7 km/h 12.9 km/h 89% 0 mm 0 W/m2
03:28 -10.6 °C -12 °C 1009.7 hPa NNW 9.7 km/h 14.5 km/h 89% 0 mm 0 W/m2
03:34 -10.6 °C -12.1 °C 1009.7 hPa WNW 9.7 km/h 17.7 km/h 89% 0 mm 0 W/m2
03:39 -10.7 °C -12.1 °C 1009.7 hPa North 11.3 km/h 14.5 km/h 89% 0 mm 0 W/m2
03:50 -10.8 °C -12.3 °C 1009 hPa NNW 11.3 km/h 16.1 km/h 89% 0 mm 0 W/m2
03:55 -10.9 °C -12.3 °C 1008.4 hPa North 11.3 km/h 16.1 km/h 89% 0 mm 0 W/m2
04:02 -11 °C -12.4 °C 1008.4 hPa NNE 9.7 km/h 9.7 km/h 89% 0 mm 0 W/m2
04:08 -11.1 °C -12.5 °C 1008.4 hPa NNW 9.7 km/h 11.3 km/h 89% 0 mm 0 W/m2
04:13 -11.2 °C -12.6 °C 1008.7 hPa North 11.3 km/h 12.9 km/h 89% 0 mm 0 W/m2
04:20 -11.2 °C -12.6 °C 1009 hPa NW 9.7 km/h 9.7 km/h 89% 0 mm 0 W/m2
04:26 -11.2 °C -12.7 °C 1008.7 hPa NW 8 km/h 9.7 km/h 89% 0 mm 0 W/m2
04:32 -11.3 °C -12.7 °C 1008.7 hPa NNW 9.7 km/h 12.9 km/h 89% 0 mm 0 W/m2
04:38 -11.3 °C -12.7 °C 1009 hPa North 11.3 km/h 17.7 km/h 89% 0 mm 0 W/m2
04:43 -11.3 °C -12.8 °C 1008.7 hPa NW 11.3 km/h 14.5 km/h 89% 0 mm 0 W/m2
04:49 -11.4 °C -12.8 °C 1008.7 hPa North 12.9 km/h 12.9 km/h 89% 0 mm 0 W/m2
04:56 -11.3 °C -12.8 °C 1009.4 hPa NNW 11.3 km/h 20.9 km/h 89% 0 mm 0 W/m2
05:02 -11.4 °C -12.8 °C 1009.4 hPa North 12.9 km/h 17.7 km/h 89% 0 mm 0 W/m2
05:08 -11.4 °C -12.8 °C 1009.7 hPa NW 16.1 km/h 17.7 km/h 89% 0 mm 0 W/m2
05:13 -11.4 °C -12.8 °C 1009.7 hPa North 12.9 km/h 16.1 km/h 89% 0 mm 0 W/m2
05:19 -11.4 °C -12.8 °C 1010.4 hPa NW 9.7 km/h 14.5 km/h 89% 0 mm 0 W/m2
05:26 -11.3 °C -12.8 °C 1010.7 hPa NNW 9.7 km/h 14.5 km/h 89% 0 mm 0 W/m2
05:32 -11.3 °C -12.8 °C 1010 hPa NW 11.3 km/h 11.3 km/h 89% 0 mm 0 W/m2
05:42 -11.4 °C -12.8 °C 1010.4 hPa NW 12.9 km/h 20.9 km/h 89% 0 mm 0 W/m2
05:48 -11.4 °C -12.9 °C 1010.7 hPa WNW 12.9 km/h 20.9 km/h 89% 0 mm 0 W/m2
05:53 -11.5 °C -12.9 °C 1011.7 hPa NNW 9.7 km/h 12.9 km/h 89% 0 mm 0 W/m2
05:59 -11.5 °C -12.9 °C 1012.4 hPa WNW 6.4 km/h 6.4 km/h 89% 0 mm 0 W/m2
06:05 -11.4 °C -12.9 °C 1013.1 hPa NNW 4.8 km/h 6.4 km/h 89% 0 mm 0 W/m2
06:12 -11.4 °C -12.9 °C 1013.1 hPa WNW 6.4 km/h 8 km/h 89% 0 mm 0 W/m2
06:29 -11.6 °C -13.1 °C 1012.8 hPa NNW 12.9 km/h 12.9 km/h 89% 0 mm 0 W/m2
06:36 -11.7 °C -13.2 °C 1013.4 hPa NNW 9.7 km/h 16.1 km/h 89% 0 mm 0 W/m2
06:42 -11.7 °C -13.1 °C 1014.1 hPa NW 6.4 km/h 8 km/h 89% 0 mm 0 W/m2
06:48 -11.7 °C -13.2 °C 1014.8 hPa WNW 8 km/h 8 km/h 89% 0 mm 0 W/m2
06:53 -11.7 °C -13.1 °C 1015.1 hPa NW 8 km/h 8 km/h 89% 0 mm 0 W/m2
07:00 -11.7 °C -13.1 °C 1015.1 hPa NW 6.4 km/h 6.4 km/h 89% 0 mm 0 W/m2
07:06 -11.7 °C -13.1 °C 1015.1 hPa NW 6.4 km/h 12.9 km/h 89% 0 mm 0 W/m2
07:12 -11.7 °C -13.2 °C 1015.5 hPa NNW 9.7 km/h 9.7 km/h 89% 0 mm 0 W/m2
07:18 -11.7 °C -13.2 °C 1015.5 hPa NNW 8 km/h 14.5 km/h 89% 0 mm 0 W/m2
07:23 -11.8 °C -13.3 °C 1015.5 hPa NNW 8 km/h 14.5 km/h 89% 0 mm 0 W/m2
07:29 -11.9 °C -13.3 °C 1015.8 hPa North 6.4 km/h 6.4 km/h 89% 0 mm 0 W/m2
07:36 -11.9 °C -13.3 °C 1016.1 hPa NNW 6.4 km/h 11.3 km/h 89% 0 mm 0 W/m2
07:42 -11.9 °C -13.3 °C 1016.1 hPa NW 9.7 km/h 9.7 km/h 89% 0 mm 0 W/m2
07:48 -11.9 °C -13.3 °C 1016.5 hPa NW 8 km/h 11.3 km/h 89% 0 mm 0 W/m2
07:53 -11.8 °C -13.3 °C 1016.1 hPa NNW 6.4 km/h 8 km/h 89% 0 mm 0 W/m2
07:59 -11.9 °C -13.3 °C 1016.5 hPa NW 6.4 km/h 8 km/h 89% 0 mm 5 W/m2
08:06 -11.9 °C -13.3 °C 1016.5 hPa NW 6.4 km/h 11.3 km/h 89% 0 mm 7 W/m2
08:12 -11.8 °C -13.3 °C 1016.8 hPa NNW 6.4 km/h 6.4 km/h 89% 0 mm 16 W/m2
08:18 -11.8 °C -13.2 °C 1016.5 hPa NNW 6.4 km/h 14.5 km/h 89% 0 mm 25 W/m2
08:23 -11.7 °C -13.2 °C 1016.8 hPa NW 6.4 km/h 8 km/h 89% 0 mm 25 W/m2
08:29 -11.7 °C -13.2 °C 1016.8 hPa NNW 8 km/h 11.3 km/h 89% 0 mm 32 W/m2
08:40 -11.7 °C -13.2 °C 1016.8 hPa North 6.4 km/h 6.4 km/h 89% 0 mm 42 W/m2
08:45 -11.8 °C -13.2 °C 1016.8 hPa NNW 6.4 km/h 8 km/h 89% 0 mm 33 W/m2
08:52 -11.8 °C -13.3 °C 1016.8 hPa NNW 8 km/h 12.9 km/h 89% 0 mm 39 W/m2
08:58 -11.8 °C -13.3 °C 1017.2 hPa NW 4.8 km/h 12.9 km/h 89% 0 mm 51 W/m2
09:03 -11.8 °C -13.3 °C 1017.2 hPa North 3.2 km/h 4.8 km/h 89% 0 mm 70 W/m2
09:10 -11.7 °C -13.2 °C 1017.2 hPa NNW 4.8 km/h 8 km/h 89% 0 mm 74 W/m2
09:18 -11.8 °C -13.2 °C 1017.8 hPa NNW 8 km/h 9.7 km/h 89% 0 mm 60 W/m2
09:23 -11.8 °C -13.4 °C 1018.2 hPa NNW 8 km/h 9.7 km/h 88% 0 mm 54 W/m2
09:30 -11.9 °C -13.5 °C 1018.2 hPa North 6.4 km/h 6.4 km/h 88% 0 mm 62 W/m2
09:35 -11.9 °C -13.3 °C 1018.5 hPa NNW 6.4 km/h 14.5 km/h 89% 0 mm 95 W/m2
09:42 -11.9 °C -13.6 °C 1018.5 hPa NNW 8 km/h 8 km/h 88% 0 mm 125 W/m2
09:50 -11.9 °C -13.6 °C 1018.8 hPa NW 6.4 km/h 12.9 km/h 88% 0 mm 149 W/m2
09:55 -11.9 °C -13.4 °C 1019.2 hPa NW 8 km/h 12.9 km/h 89% 0 mm 169 W/m2
10:02 -11.9 °C -13.4 °C 1019.5 hPa NNW 6.4 km/h 8 km/h 89% 0 mm 260 W/m2
10:08 -11.8 °C -13.4 °C 1019.9 hPa NNW 6.4 km/h 8 km/h 88% 0 mm 214 W/m2
10:14 -11.6 °C -13.1 °C 1019.9 hPa NNW 6.4 km/h 8 km/h 89% 0 mm 186 W/m2
10:20 -11.6 °C -13.1 °C 1020.2 hPa NNW 8 km/h 8 km/h 89% 0 mm 158 W/m2
10:32 -11.6 °C -13.1 °C 1020.9 hPa North 6.4 km/h 11.3 km/h 89% 0 mm 155 W/m2
10:38 -11.6 °C -13.1 °C 1020.9 hPa NNW 8 km/h 11.3 km/h 89% 0 mm 153 W/m2
10:48 -11.7 °C -13.3 °C 1021.2 hPa North 8 km/h 16.1 km/h 88% 0 mm 163 W/m2
10:54 -11.8 °C -13.4 °C 1021.2 hPa NNW 9.7 km/h 11.3 km/h 88% 0 mm 165 W/m2
10:59 -11.9 °C -13.6 °C 1021.2 hPa North 9.7 km/h 11.3 km/h 88% 0 mm 153 W/m2
11:06 -12 °C -13.6 °C 1021.2 hPa NNW 9.7 km/h 11.3 km/h 88% 0 mm 137 W/m2
11:12 -11.9 °C -13.6 °C 1021.2 hPa NNW 8 km/h 9.7 km/h 88% 0 mm 199 W/m2
11:18 -11.8 °C -13.4 °C 1021.2 hPa NW 6.4 km/h 9.7 km/h 88% 0 mm 229 W/m2
11:24 -11.7 °C -13.2 °C 1021.2 hPa NNW 6.4 km/h 6.4 km/h 89% 0 mm 174 W/m2
11:29 -11.7 °C -13.1 °C 1021.2 hPa NNW 6.4 km/h 6.4 km/h 89% 0 mm 149 W/m2
11:36 -11.6 °C -13.1 °C 1021.2 hPa NW 8 km/h 8 km/h 89% 0 mm 125 W/m2
11:46 -11.5 °C -12.9 °C 1021.2 hPa NW 6.4 km/h 11.3 km/h 89% 0 mm 197 W/m2
11:52 -11.6 °C -13.1 °C 1021.2 hPa NNW 9.7 km/h 14.5 km/h 89% 0 mm 176 W/m2
11:58 -11.7 °C -13.3 °C 1021.2 hPa NW 9.7 km/h 14.5 km/h 88% 0 mm 160 W/m2
12:03 -11.7 °C -13.3 °C 1021.2 hPa NNW 8 km/h 8 km/h 88% 0 mm 144 W/m2
12:10 -11.7 °C -13.3 °C 1021.2 hPa North 6.4 km/h 11.3 km/h 88% 0 mm 139 W/m2
12:15 -11.7 °C -13.3 °C 1021.2 hPa NNW 8 km/h 14.5 km/h 88% 0 mm 132 W/m2
12:22 -11.7 °C -13.3 °C 1021.2 hPa NNW 8 km/h 8 km/h 88% 0 mm 151 W/m2
12:28 -11.7 °C -13.1 °C 1021.2 hPa North 6.4 km/h 12.9 km/h 89% 0 mm 146 W/m2
12:34 -11.7 °C -13.1 °C 1021.2 hPa NNW 6.4 km/h 9.7 km/h 89% 0 mm 155 W/m2
12:40 -11.7 °C -13.3 °C 1021.2 hPa NNW 8 km/h 8 km/h 88% 0 mm 174 W/m2
12:45 -11.7 °C -13.3 °C 1021.2 hPa NNW 8 km/h 11.3 km/h 88% 0 mm 165 W/m2
12:52 -11.8 °C -13.4 °C 1021.2 hPa NW 8 km/h 9.7 km/h 88% 0 mm 137 W/m2
12:58 -11.9 °C -13.5 °C 1021.6 hPa NW 8 km/h 12.9 km/h 88% 0 mm 134 W/m2
13:04 -11.9 °C -13.6 °C 1021.6 hPa NNW 8 km/h 8 km/h 88% 0 mm 174 W/m2
13:10 -11.9 °C -13.3 °C 1021.6 hPa NNW 6.4 km/h 8 km/h 89% 0 mm 163 W/m2
13:22 -11.7 °C -13.2 °C 1021.6 hPa WNW 6.4 km/h 6.4 km/h 89% 0 mm 158 W/m2
13:28 -11.6 °C -13 °C 1021.6 hPa NNW 3.2 km/h 6.4 km/h 89% 0 mm 153 W/m2
13:34 -11.5 °C -12.9 °C 1021.9 hPa NW 4.8 km/h 6.4 km/h 89% 0 mm 153 W/m2
13:40 -11.4 °C -12.9 °C 1021.9 hPa NNW 4.8 km/h 6.4 km/h 89% 0 mm 132 W/m2
13:45 -11.4 °C -12.8 °C 1022.2 hPa North 4.8 km/h 8 km/h 89% 0 mm 132 W/m2
13:52 -11.4 °C -12.8 °C 1022.2 hPa NNW 4.8 km/h 6.4 km/h 89% 0 mm 125 W/m2
13:58 -11.4 °C -12.9 °C 1022.6 hPa NNW 8 km/h 11.3 km/h 89% 0 mm 120 W/m2
14:04 -11.5 °C -12.9 °C 1022.9 hPa NW 8 km/h 11.3 km/h 89% 0 mm 121 W/m2
14:10 -11.5 °C -12.9 °C 1022.9 hPa NW 6.4 km/h 6.4 km/h 89% 0 mm 114 W/m2
14:15 -11.5 °C -12.9 °C 1022.9 hPa WNW 6.4 km/h 6.4 km/h 89% 0 mm 107 W/m2
14:22 -11.6 °C -13 °C 1022.9 hPa NW 6.4 km/h 12.9 km/h 89% 0 mm 104 W/m2
14:28 -11.6 °C -13 °C 1023.2 hPa WNW 6.4 km/h 12.9 km/h 89% 0 mm 111 W/m2
14:33 -11.6 °C -13.1 °C 1023.2 hPa WNW 8 km/h 11.3 km/h 89% 0 mm 102 W/m2
14:39 -11.6 °C -13.2 °C 1023.6 hPa NNW 8 km/h 8 km/h 88% 0 mm 104 W/m2
14:55 -11.6 °C -13.1 °C 1023.9 hPa WNW 6.4 km/h 8 km/h 89% 0 mm 83 W/m2
15:08 -11.7 °C -13.3 °C 1024.6 hPa NW 6.4 km/h 8 km/h 88% 0 mm 67 W/m2
15:14 -11.7 °C -13.3 °C 1024.6 hPa NW 6.4 km/h 11.3 km/h 88% 0 mm 65 W/m2
15:26 -11.7 °C -13.3 °C 1024.9 hPa WNW 4.8 km/h 6.4 km/h 88% 0 mm 53 W/m2
15:32 -11.7 °C -13.3 °C 1025.3 hPa NW 3.2 km/h 4.8 km/h 88% 0 mm 49 W/m2
15:38 -11.7 °C -13.3 °C 1025.6 hPa NW 4.8 km/h 4.8 km/h 88% 0 mm 46 W/m2
15:50 -11.7 °C -13.1 °C 1025.6 hPa NW 3.2 km/h 6.4 km/h 89% 0 mm 40 W/m2
15:55 -11.7 °C -13.2 °C 1026 hPa NNW 4.8 km/h 6.4 km/h 89% 0 mm 37 W/m2
16:02 -11.7 °C -13.1 °C 1026.3 hPa NW 3.2 km/h 4.8 km/h 89% 0 mm 30 W/m2
16:08 -11.7 °C -13.1 °C 1026.3 hPa NW 1.6 km/h 4.8 km/h 89% 0 mm 26 W/m2
16:14 -11.7 °C -13.1 °C 1026.6 hPa NW 1.6 km/h 3.2 km/h 89% 0 mm 21 W/m2
16:20 -11.7 °C -13.1 °C 1026.6 hPa NW 3.2 km/h 6.4 km/h 89% 0 mm 18 W/m2
16:25 -11.7 °C -13.1 °C 1027 hPa NW 3.2 km/h 6.4 km/h 89% 0 mm 16 W/m2
16:32 -11.7 °C -13.1 °C 1027 hPa NW 3.2 km/h 3.2 km/h 89% 0 mm 11 W/m2
16:38 -11.7 °C -13.1 °C 1027.3 hPa NW 1.6 km/h 3.2 km/h 89% 0 mm 7 W/m2
16:50 -11.7 °C -13.1 °C 1027.3 hPa NW 3.2 km/h 3.2 km/h 89% 0 mm 0 W/m2
16:56 -11.7 °C -13.1 °C 1027.7 hPa NW 1.6 km/h 3.2 km/h 89% 0 mm 0 W/m2
17:05 -11.7 °C -13.2 °C 1027.7 hPa NW 1.6 km/h 4.8 km/h 89% 0 mm 0 W/m2
17:12 -11.8 °C -13.3 °C 1027.7 hPa WNW 3.2 km/h 3.2 km/h 89% 0 mm 0 W/m2
17:18 -11.9 °C -13.6 °C 1027.7 hPa WNW 3.2 km/h 3.2 km/h 88% 0 mm 0 W/m2
17:24 -12.1 °C -13.6 °C 1028 hPa WNW 1.6 km/h 1.6 km/h 88% 0 mm 0 W/m2
17:35 -12.4 °C -13.9 °C 1028.3 hPa Calm     88% 0 mm 0 W/m2
17:42 -12.7 °C -14.2 °C 1028.3 hPa Calm     88% 0 mm 0 W/m2
17:48 -12.9 °C -14.4 °C 1028.3 hPa Calm     88% 0 mm 0 W/m2
17:53 -13.1 °C -14.6 °C 1028.7 hPa Calm     88% 0 mm 0 W/m2
17:59 -13.3 °C -14.8 °C 1028.7 hPa Calm     88% 0 mm 0 W/m2
18:05 -13.4 °C -15 °C 1028.7 hPa Calm     88% 0 mm 0 W/m2
18:12 -13.6 °C -15.2 °C 1028.7 hPa Calm     88% 0 mm 0 W/m2
18:18 -13.7 °C -15.3 °C 1029 hPa Calm     88% 0 mm 0 W/m2
18:24 -13.8 °C -15.4 °C 1029 hPa Calm     88% 0 mm 0 W/m2
18:30 -13.9 °C -15.4 °C 1029.3 hPa Calm     88% 0 mm 0 W/m2
18:38 -13.9 °C -15.4 °C 1029.3 hPa Calm     88% 0 mm 0 W/m2
18:44 -13.9 °C -15.4 °C 1029.3 hPa Calm     88% 0 mm 0 W/m2
18:49 -13.9 °C -15.5 °C 1029.3 hPa Calm     88% 0 mm 0 W/m2
18:55 -14 °C -15.6 °C 1029.7 hPa Calm   1.6 km/h 88% 0 mm 0 W/m2
19:02 -14.1 °C -15.6 °C 1030 hPa Calm     88% 0 mm 0 W/m2
19:08 -14.1 °C -15.6 °C 1030 hPa Calm     88% 0 mm 0 W/m2
19:14 -14.1 °C -15.7 °C 1030 hPa Calm     88% 0 mm 0 W/m2
19:25 -14 °C -15.6 °C 1030.4 hPa Calm   1.6 km/h 88% 0 mm 0 W/m2
19:32 -13.9 °C -15.4 °C 1030.4 hPa WNW 1.6 km/h 3.2 km/h 88% 0 mm 0 W/m2
19:38 -13.8 °C -15.3 °C 1030.4 hPa NE 3.2 km/h 4.8 km/h 88% 0 mm 0 W/m2
19:43 -13.7 °C -15.3 °C 1030.4 hPa NE 1.6 km/h 3.2 km/h 88% 0 mm 0 W/m2
19:49 -13.7 °C -15.3 °C 1030.7 hPa NE 1.6 km/h 1.6 km/h 88% 0 mm 0 W/m2
19:56 -13.8 °C -15.3 °C 1030.7 hPa East 3.2 km/h 3.2 km/h 88% 0 mm 0 W/m2
20:02 -13.9 °C -15.4 °C 1030.7 hPa East 3.2 km/h 4.8 km/h 88% 0 mm 0 W/m2
20:08 -14 °C -15.7 °C 1031 hPa ENE 3.2 km/h 4.8 km/h 87% 0 mm 0 W/m2
20:14 -14.1 °C -15.7 °C 1031 hPa ENE 1.6 km/h 3.2 km/h 87% 0 mm 0 W/m2
20:23 -14.1 °C -15.8 °C 1031 hPa ENE 1.6 km/h 3.2 km/h 87% 0 mm 0 W/m2
20:30 -14.2 °C -15.7 °C 1031 hPa ENE 1.6 km/h 3.2 km/h 88% 0 mm 0 W/m2
20:35 -14.2 °C -15.8 °C 1031.4 hPa Calm   3.2 km/h 87% 0 mm 0 W/m2
20:42 -14.2 °C -15.9 °C 1031.4 hPa Calm   3.2 km/h 87% 0 mm 0 W/m2
20:48 -14.2 °C -15.9 °C 1031.4 hPa ENE 1.6 km/h 3.2 km/h 87% 0 mm 0 W/m2
20:54 -14.3 °C -15.9 °C 1031 hPa Calm   1.6 km/h 87% 0 mm 0 W/m2
21:02 -14.3 °C -16 °C 1031.7 hPa Calm     87% 0 mm 0 W/m2
21:08 -14.4 °C -16.1 °C 1031.7 hPa Calm     87% 0 mm 0 W/m2
21:16 -14.4 °C -16.1 °C 1031.7 hPa Calm     87% 0 mm 0 W/m2
21:22 -14.5 °C -16.2 °C 1031.7 hPa Calm     87% 0 mm 0 W/m2
21:28 -14.6 °C -16.2 °C 1031.7 hPa Calm     87% 0 mm 0 W/m2
21:34 -14.7 °C -16.3 °C 1031.7 hPa Calm     87% 0 mm 0 W/m2
21:39 -14.7 °C -16.4 °C 1032.1 hPa Calm     87% 0 mm 0 W/m2
21:45 -14.8 °C -16.5 °C 1032.1 hPa Calm     87% 0 mm 0 W/m2
21:52 -14.9 °C -16.6 °C 1032.1 hPa Calm     87% 0 mm 0 W/m2
21:58 -15 °C -16.7 °C 1032.1 hPa Calm     87% 0 mm 0 W/m2
22:03 -15.1 °C -16.7 °C 1032.1 hPa Calm     87% 0 mm 0 W/m2
22:09 -15.1 °C -16.8 °C 1032.1 hPa Calm     87% 0 mm 0 W/m2
22:15 -15.2 °C -16.8 °C 1032.4 hPa Calm     87% 0 mm 0 W/m2
22:22 -15.3 °C -16.9 °C 1032.4 hPa Calm     87% 0 mm 0 W/m2
22:28 -15.4 °C -17.1 °C 1032.7 hPa Calm     87% 0 mm 0 W/m2
22:33 -15.5 °C -17.2 °C 1032.7 hPa Calm     87% 0 mm 0 W/m2
22:40 -15.7 °C -17.5 °C 1032.7 hPa Calm     86% 0 mm 0 W/m2
22:45 -15.9 °C -17.7 °C 1032.7 hPa Calm     86% 0 mm 0 W/m2
23:03 -16.5 °C -18.3 °C 1033.1 hPa Calm     86% 0 mm 0 W/m2
23:13 -16.8 °C -18.6 °C 1033.1 hPa Calm     86% 0 mm 0 W/m2
23:19 -17 °C -18.8 °C 1033.4 hPa Calm     86% 0 mm 0 W/m2
23:26 -17.2 °C -18.9 °C 1033.4 hPa Calm     86% 0 mm 0 W/m2
23:32 -17.3 °C -19.1 °C 1033.4 hPa Calm     86% 0 mm 0 W/m2
23:38 -17.6 °C -19.3 °C 1033.4 hPa Calm     86% 0 mm 0 W/m2
23:44 -17.7 °C -19.5 °C 1033.7 hPa Calm     86% 0 mm 0 W/m2
23:49 -18 °C -19.9 °C 1033.7 hPa Calm     85% 0 mm 0 W/m2
23:56 -18.2 °C -20.1 °C 1033.7 hPa Calm     85% 0 mm 0 W/m2
Country Meadow, Clay, NY, USA
Compliments of Weather Underground - 2 mb